sensor_id;sensor_type;location;lat;lon;timestamp;pressure;altitude;pressure_sealevel;temperature;humidity
34235;BME280;20500;49.856;20.290;2023-03-31T00:00:41;98120.63;;;9.61;66.83
34235;BME280;20500;49.856;20.290;2023-03-31T00:03:46;98131.42;;;9.63;66.92
34235;BME280;20500;49.856;20.290;2023-03-31T00:06:52;98136.11;;;9.63;66.87
34235;BME280;20500;49.856;20.290;2023-03-31T00:09:57;98132.00;;;9.64;67.05
34235;BME280;20500;49.856;20.290;2023-03-31T00:13:21;98134.08;;;9.67;66.95
34235;BME280;20500;49.856;20.290;2023-03-31T00:16:27;98133.30;;;9.70;67.04
34235;BME280;20500;49.856;20.290;2023-03-31T00:19:33;98134.05;;;9.72;67.09
34235;BME280;20500;49.856;20.290;2023-03-31T00:22:39;98135.62;;;9.74;67.09
34235;BME280;20500;49.856;20.290;2023-03-31T00:25:50;98138.73;;;9.77;67.06
34235;BME280;20500;49.856;20.290;2023-03-31T00:28:57;98136.95;;;9.80;67.21
34235;BME280;20500;49.856;20.290;2023-03-31T00:32:03;98131.83;;;9.81;67.11
34235;BME280;20500;49.856;20.290;2023-03-31T00:35:09;98124.23;;;9.83;67.25
34235;BME280;20500;49.856;20.290;2023-03-31T00:38:16;98123.34;;;9.84;67.26
34235;BME280;20500;49.856;20.290;2023-03-31T00:41:25;98119.43;;;9.86;67.26
34235;BME280;20500;49.856;20.290;2023-03-31T00:44:32;98116.16;;;9.87;67.33
34235;BME280;20500;49.856;20.290;2023-03-31T00:47:36;98115.66;;;9.87;67.20
34235;BME280;20500;49.856;20.290;2023-03-31T00:50:48;98112.28;;;9.86;67.32
34235;BME280;20500;49.856;20.290;2023-03-31T00:53:57;98108.30;;;9.85;67.37
34235;BME280;20500;49.856;20.290;2023-03-31T00:57:05;98103.28;;;9.85;67.39
34235;BME280;20500;49.856;20.290;2023-03-31T01:00:14;98102.05;;;9.84;67.43
34235;BME280;20500;49.856;20.290;2023-03-31T01:03:22;98100.05;;;9.83;67.47
34235;BME280;20500;49.856;20.290;2023-03-31T01:06:29;98104.98;;;9.84;67.45
34235;BME280;20500;49.856;20.290;2023-03-31T01:09:35;98105.27;;;9.85;67.47
34235;BME280;20500;49.856;20.290;2023-03-31T01:12:44;98106.42;;;9.87;67.52
34235;BME280;20500;49.856;20.290;2023-03-31T01:15:52;98110.33;;;9.89;67.57
34235;BME280;20500;49.856;20.290;2023-03-31T01:18:58;98109.70;;;9.91;67.56
34235;BME280;20500;49.856;20.290;2023-03-31T01:22:29;98115.63;;;9.94;67.65
34235;BME280;20500;49.856;20.290;2023-03-31T01:29:33;98121.30;;;10.02;67.65
34235;BME280;20500;49.856;20.290;2023-03-31T01:33:01;98122.70;;;10.04;67.54
34235;BME280;20500;49.856;20.290;2023-03-31T01:36:34;98121.58;;;10.05;67.71
34235;BME280;20500;49.856;20.290;2023-03-31T01:40:24;98117.23;;;10.07;67.68
34235;BME280;20500;49.856;20.290;2023-03-31T01:43:38;98122.58;;;10.06;67.55
34235;BME280;20500;49.856;20.290;2023-03-31T01:46:54;98126.68;;;10.05;67.58
34235;BME280;20500;49.856;20.290;2023-03-31T01:50:06;98118.31;;;10.05;67.66
34235;BME280;20500;49.856;20.290;2023-03-31T01:53:19;98114.80;;;10.06;67.56
34235;BME280;20500;49.856;20.290;2023-03-31T01:56:31;98110.08;;;10.05;67.57
34235;BME280;20500;49.856;20.290;2023-03-31T01:59:42;98103.64;;;10.04;67.67
34235;BME280;20500;49.856;20.290;2023-03-31T02:02:56;98107.67;;;10.02;67.54
34235;BME280;20500;49.856;20.290;2023-03-31T02:06:10;98107.96;;;10.00;67.57
34235;BME280;20500;49.856;20.290;2023-03-31T02:09:21;98107.40;;;9.98;67.55
34235;BME280;20500;49.856;20.290;2023-03-31T02:12:30;98106.06;;;9.98;67.66
34235;BME280;20500;49.856;20.290;2023-03-31T02:15:40;98108.61;;;9.97;67.77
34235;BME280;20500;49.856;20.290;2023-03-31T02:18:48;98109.20;;;9.97;67.65
34235;BME280;20500;49.856;20.290;2023-03-31T02:21:56;98112.04;;;9.98;67.68
34235;BME280;20500;49.856;20.290;2023-03-31T02:25:01;98115.39;;;9.97;67.67
34235;BME280;20500;49.856;20.290;2023-03-31T02:28:11;98114.54;;;9.94;67.71
34235;BME280;20500;49.856;20.290;2023-03-31T02:31:27;98117.27;;;9.91;67.74
34235;BME280;20500;49.856;20.290;2023-03-31T02:34:38;98116.10;;;9.90;67.82
34235;BME280;20500;49.856;20.290;2023-03-31T02:37:44;98119.58;;;9.90;67.84
34235;BME280;20500;49.856;20.290;2023-03-31T02:40:53;98115.05;;;9.89;67.80
34235;BME280;20500;49.856;20.290;2023-03-31T02:43:59;98110.16;;;9.89;67.76
34235;BME280;20500;49.856;20.290;2023-03-31T02:47:08;98102.60;;;9.90;67.69
34235;BME280;20500;49.856;20.290;2023-03-31T02:50:15;98099.17;;;9.90;67.75
34235;BME280;20500;49.856;20.290;2023-03-31T02:53:20;98098.92;;;9.89;67.65
34235;BME280;20500;49.856;20.290;2023-03-31T02:56:43;98098.58;;;9.87;67.78
34235;BME280;20500;49.856;20.290;2023-03-31T03:00:00;98092.21;;;9.86;67.78
34235;BME280;20500;49.856;20.290;2023-03-31T03:03:24;98098.14;;;9.85;67.81
34235;BME280;20500;49.856;20.290;2023-03-31T03:06:40;98097.36;;;9.86;67.71
34235;BME280;20500;49.856;20.290;2023-03-31T03:09:56;98099.57;;;9.85;67.67
34235;BME280;20500;49.856;20.290;2023-03-31T03:13:12;98097.82;;;9.85;67.76
34235;BME280;20500;49.856;20.290;2023-03-31T03:16:25;98095.81;;;9.85;67.73
34235;BME280;20500;49.856;20.290;2023-03-31T03:19:32;98095.30;;;9.86;67.70
34235;BME280;20500;49.856;20.290;2023-03-31T03:22:38;98104.21;;;9.86;67.70
34235;BME280;20500;49.856;20.290;2023-03-31T03:25:44;98108.92;;;9.87;67.73
34235;BME280;20500;49.856;20.290;2023-03-31T03:28:51;98107.60;;;9.86;67.75
34235;BME280;20500;49.856;20.290;2023-03-31T03:31:57;98109.23;;;9.86;67.81
34235;BME280;20500;49.856;20.290;2023-03-31T03:35:04;98116.09;;;9.87;67.66
34235;BME280;20500;49.856;20.290;2023-03-31T03:38:10;98116.55;;;9.86;67.79
34235;BME280;20500;49.856;20.290;2023-03-31T03:41:16;98114.33;;;9.85;67.78
34235;BME280;20500;49.856;20.290;2023-03-31T03:44:22;98106.55;;;9.84;67.92
34235;BME280;20500;49.856;20.290;2023-03-31T03:47:28;98100.28;;;9.77;68.06
34235;BME280;20500;49.856;20.290;2023-03-31T03:50:37;98098.80;;;9.69;68.17
34235;BME280;20500;49.856;20.290;2023-03-31T03:53:43;98099.55;;;9.60;68.25
34235;BME280;20500;49.856;20.290;2023-03-31T03:56:49;98097.92;;;9.55;68.29
34235;BME280;20500;49.856;20.290;2023-03-31T03:59:55;98097.17;;;9.49;68.37
34235;BME280;20500;49.856;20.290;2023-03-31T04:03:01;98098.31;;;9.44;68.38
34235;BME280;20500;49.856;20.290;2023-03-31T04:06:06;98099.55;;;9.37;68.53
34235;BME280;20500;49.856;20.290;2023-03-31T04:09:12;98094.85;;;9.33;68.56
34235;BME280;20500;49.856;20.290;2023-03-31T04:12:18;98094.08;;;9.30;68.46
34235;BME280;20500;49.856;20.290;2023-03-31T04:15:24;98088.23;;;9.26;68.59
34235;BME280;20500;49.856;20.290;2023-03-31T04:18:30;98081.92;;;9.24;68.65
34235;BME280;20500;49.856;20.290;2023-03-31T04:21:36;98080.17;;;9.24;68.72
34235;BME280;20500;49.856;20.290;2023-03-31T04:24:49;98081.58;;;9.23;68.70
34235;BME280;20500;49.856;20.290;2023-03-31T04:27:56;98078.34;;;9.20;68.82
34235;BME280;20500;49.856;20.290;2023-03-31T04:31:00;98069.50;;;9.18;68.78
34235;BME280;20500;49.856;20.290;2023-03-31T04:34:07;98062.08;;;9.20;68.76
34235;BME280;20500;49.856;20.290;2023-03-31T04:37:17;98061.77;;;9.22;68.83
34235;BME280;20500;49.856;20.290;2023-03-31T04:40:23;98061.73;;;9.23;68.81
34235;BME280;20500;49.856;20.290;2023-03-31T04:43:29;98062.39;;;9.22;69.03
34235;BME280;20500;49.856;20.290;2023-03-31T04:46:35;98053.11;;;9.21;69.03
34235;BME280;20500;49.856;20.290;2023-03-31T04:49:41;98050.15;;;9.21;69.02
34235;BME280;20500;49.856;20.290;2023-03-31T04:52:47;98047.91;;;9.23;69.02
34235;BME280;20500;49.856;20.290;2023-03-31T04:55:53;98048.13;;;9.24;68.99
34235;BME280;20500;49.856;20.290;2023-03-31T04:58:58;98049.17;;;9.26;69.12
34235;BME280;20500;49.856;20.290;2023-03-31T05:02:04;98056.14;;;9.25;69.08
34235;BME280;20500;49.856;20.290;2023-03-31T05:05:11;98057.11;;;9.25;69.19
34235;BME280;20500;49.856;20.290;2023-03-31T05:08:17;98061.34;;;9.27;69.34
34235;BME280;20500;49.856;20.290;2023-03-31T05:11:23;98060.00;;;9.31;69.30
34235;BME280;20500;49.856;20.290;2023-03-31T05:14:29;98055.98;;;9.34;69.23
34235;BME280;20500;49.856;20.290;2023-03-31T05:17:36;98048.53;;;9.36;69.31
34235;BME280;20500;49.856;20.290;2023-03-31T05:20:42;98045.17;;;9.40;69.34
34235;BME280;20500;49.856;20.290;2023-03-31T05:23:48;98042.31;;;9.43;69.45
34235;BME280;20500;49.856;20.290;2023-03-31T05:26:54;98041.41;;;9.46;69.44
34235;BME280;20500;49.856;20.290;2023-03-31T05:30:00;98037.20;;;9.51;69.55
34235;BME280;20500;49.856;20.290;2023-03-31T05:33:06;98036.61;;;9.54;69.42
34235;BME280;20500;49.856;20.290;2023-03-31T05:36:14;98033.77;;;9.58;69.48
34235;BME280;20500;49.856;20.290;2023-03-31T05:39:20;98034.10;;;9.64;69.58
34235;BME280;20500;49.856;20.290;2023-03-31T05:42:26;98031.92;;;9.70;69.64
34235;BME280;20500;49.856;20.290;2023-03-31T05:45:32;98027.72;;;9.76;69.60
34235;BME280;20500;49.856;20.290;2023-03-31T05:48:38;98020.17;;;9.81;69.65
34235;BME280;20500;49.856;20.290;2023-03-31T05:51:44;98021.84;;;9.84;69.64
34235;BME280;20500;49.856;20.290;2023-03-31T05:54:51;98023.08;;;9.87;69.81
34235;BME280;20500;49.856;20.290;2023-03-31T05:57:57;98023.94;;;9.93;69.90
34235;BME280;20500;49.856;20.290;2023-03-31T06:01:04;98022.08;;;9.97;69.65
34235;BME280;20500;49.856;20.290;2023-03-31T06:04:12;98019.83;;;10.03;69.75
34235;BME280;20500;49.856;20.290;2023-03-31T06:07:18;98021.07;;;10.10;69.89
34235;BME280;20500;49.856;20.290;2023-03-31T06:10:25;98020.27;;;10.20;69.86
34235;BME280;20500;49.856;20.290;2023-03-31T06:13:31;98018.35;;;10.33;70.01
34235;BME280;20500;49.856;20.290;2023-03-31T06:16:37;98023.32;;;10.47;70.11
34235;BME280;20500;49.856;20.290;2023-03-31T06:19:43;98021.41;;;10.59;69.99
34235;BME280;20500;49.856;20.290;2023-03-31T06:22:49;98017.86;;;10.70;69.94
34235;BME280;20500;49.856;20.290;2023-03-31T06:25:58;98020.91;;;10.80;69.86
34235;BME280;20500;49.856;20.290;2023-03-31T06:29:04;98020.99;;;10.91;69.93
34235;BME280;20500;49.856;20.290;2023-03-31T06:32:11;98025.69;;;11.01;69.79
34235;BME280;20500;49.856;20.290;2023-03-31T06:35:17;98026.18;;;11.09;69.44
34235;BME280;20500;49.856;20.290;2023-03-31T06:38:23;98025.30;;;11.14;69.38
34235;BME280;20500;49.856;20.290;2023-03-31T06:41:29;98029.40;;;11.18;69.33
34235;BME280;20500;49.856;20.290;2023-03-31T06:44:34;98031.02;;;11.26;69.43
34235;BME280;20500;49.856;20.290;2023-03-31T06:47:40;98030.42;;;11.32;69.29
34235;BME280;20500;49.856;20.290;2023-03-31T06:50:46;98028.59;;;11.32;68.97
34235;BME280;20500;49.856;20.290;2023-03-31T06:53:52;98027.21;;;11.28;68.87
34235;BME280;20500;49.856;20.290;2023-03-31T06:56:58;98024.29;;;11.26;68.90
34235;BME280;20500;49.856;20.290;2023-03-31T07:00:05;98029.09;;;11.29;68.97
34235;BME280;20500;49.856;20.290;2023-03-31T07:03:12;98018.80;;;11.39;69.17
34235;BME280;20500;49.856;20.290;2023-03-31T07:06:18;98019.98;;;11.54;69.07
34235;BME280;20500;49.856;20.290;2023-03-31T07:09:24;98017.67;;;11.69;68.96
34235;BME280;20500;49.856;20.290;2023-03-31T07:12:32;98018.96;;;11.84;68.82
34235;BME280;20500;49.856;20.290;2023-03-31T07:15:38;98013.29;;;12.09;68.72
34235;BME280;20500;49.856;20.290;2023-03-31T07:18:43;98011.18;;;12.33;68.45
34235;BME280;20500;49.856;20.290;2023-03-31T07:21:49;98011.56;;;12.54;68.34
34235;BME280;20500;49.856;20.290;2023-03-31T07:24:56;98013.01;;;12.75;68.26
34235;BME280;20500;49.856;20.290;2023-03-31T07:28:03;98012.27;;;12.93;68.15
34235;BME280;20500;49.856;20.290;2023-03-31T07:31:14;98011.00;;;13.17;67.95
34235;BME280;20500;49.856;20.290;2023-03-31T07:34:20;98006.34;;;13.40;67.65
34235;BME280;20500;49.856;20.290;2023-03-31T07:37:26;98005.46;;;13.60;67.53
34235;BME280;20500;49.856;20.290;2023-03-31T07:40:30;98006.04;;;13.79;67.39
34235;BME280;20500;49.856;20.290;2023-03-31T07:43:36;98004.68;;;13.91;66.93
34235;BME280;20500;49.856;20.290;2023-03-31T07:46:42;97997.61;;;14.00;66.92
34235;BME280;20500;49.856;20.290;2023-03-31T07:49:48;97994.09;;;14.17;66.83
34235;BME280;20500;49.856;20.290;2023-03-31T07:52:52;97991.26;;;14.31;66.44
34235;BME280;20500;49.856;20.290;2023-03-31T07:55:59;97988.27;;;14.46;66.14
34235;BME280;20500;49.856;20.290;2023-03-31T07:59:04;97983.40;;;14.58;65.84
34235;BME280;20500;49.856;20.290;2023-03-31T08:02:12;97987.46;;;14.67;65.68
34235;BME280;20500;49.856;20.290;2023-03-31T08:05:19;97987.98;;;14.69;65.64
34235;BME280;20500;49.856;20.290;2023-03-31T08:08:25;97983.01;;;14.80;65.57
34235;BME280;20500;49.856;20.290;2023-03-31T08:11:31;97981.06;;;14.99;65.48
34235;BME280;20500;49.856;20.290;2023-03-31T08:14:37;97977.77;;;15.03;64.94
34235;BME280;20500;49.856;20.290;2023-03-31T08:17:45;97973.16;;;14.93;64.62
34235;BME280;20500;49.856;20.290;2023-03-31T08:20:51;97974.52;;;14.91;64.24
34235;BME280;20500;49.856;20.290;2023-03-31T08:23:57;97973.48;;;14.76;63.96
34235;BME280;20500;49.856;20.290;2023-03-31T08:27:03;97967.33;;;14.64;63.93
34235;BME280;20500;49.856;20.290;2023-03-31T08:30:17;97958.58;;;14.60;63.65
34235;BME280;20500;49.856;20.290;2023-03-31T08:33:23;97954.02;;;14.58;63.63
34235;BME280;20500;49.856;20.290;2023-03-31T08:36:30;97948.02;;;14.47;63.36
34235;BME280;20500;49.856;20.290;2023-03-31T08:39:36;97944.75;;;14.49;63.26
34235;BME280;20500;49.856;20.290;2023-03-31T08:42:45;97943.25;;;14.58;63.22
34235;BME280;20500;49.856;20.290;2023-03-31T08:45:54;97937.07;;;14.67;63.03
34235;BME280;20500;49.856;20.290;2023-03-31T08:49:01;97932.76;;;14.77;62.72
34235;BME280;20500;49.856;20.290;2023-03-31T08:52:11;97929.11;;;14.81;62.55
34235;BME280;20500;49.856;20.290;2023-03-31T08:55:21;97919.30;;;14.94;62.63
34235;BME280;20500;49.856;20.290;2023-03-31T08:58:38;97913.14;;;15.05;62.08
34235;BME280;20500;49.856;20.290;2023-03-31T09:01:43;97907.95;;;15.11;61.98
34235;BME280;20500;49.856;20.290;2023-03-31T09:05:15;97906.70;;;15.24;61.78
34235;BME280;20500;49.856;20.290;2023-03-31T09:08:32;97905.63;;;15.37;61.66
34235;BME280;20500;49.856;20.290;2023-03-31T09:11:38;97892.59;;;15.54;61.45
34235;BME280;20500;49.856;20.290;2023-03-31T09:14:48;97878.42;;;15.64;61.06
34235;BME280;20500;49.856;20.290;2023-03-31T09:17:59;97879.95;;;15.58;60.88
34235;BME280;20500;49.856;20.290;2023-03-31T09:21:15;97879.30;;;15.40;60.57
34235;BME280;20500;49.856;20.290;2023-03-31T09:24:26;97878.14;;;15.22;60.46
34235;BME280;20500;49.856;20.290;2023-03-31T09:27:36;97868.59;;;15.08;60.26
34235;BME280;20500;49.856;20.290;2023-03-31T09:30:47;97864.88;;;15.01;60.23
34235;BME280;20500;49.856;20.290;2023-03-31T09:33:59;97863.44;;;15.08;60.25
34235;BME280;20500;49.856;20.290;2023-03-31T09:37:07;97861.66;;;15.20;60.07
34235;BME280;20500;49.856;20.290;2023-03-31T09:40:18;97859.13;;;15.30;60.00
34235;BME280;20500;49.856;20.290;2023-03-31T09:43:26;97847.63;;;15.41;59.76
34235;BME280;20500;49.856;20.290;2023-03-31T09:46:35;97843.14;;;15.50;59.70
34235;BME280;20500;49.856;20.290;2023-03-31T09:49:43;97838.26;;;15.50;59.23
34235;BME280;20500;49.856;20.290;2023-03-31T09:52:59;97832.88;;;15.49;59.28
34235;BME280;20500;49.856;20.290;2023-03-31T09:56:07;97829.54;;;15.58;59.05
34235;BME280;20500;49.856;20.290;2023-03-31T09:59:17;97825.14;;;15.58;58.83
34235;BME280;20500;49.856;20.290;2023-03-31T10:02:34;97817.51;;;15.60;58.66
34235;BME280;20500;49.856;20.290;2023-03-31T10:05:49;97812.31;;;15.72;58.72
34235;BME280;20500;49.856;20.290;2023-03-31T10:08:58;97807.52;;;15.85;58.38
34235;BME280;20500;49.856;20.290;2023-03-31T10:12:07;97800.73;;;16.01;58.39
34235;BME280;20500;49.856;20.290;2023-03-31T10:15:21;97796.21;;;16.17;58.27
34235;BME280;20500;49.856;20.290;2023-03-31T10:18:34;97790.93;;;16.30;57.78
34235;BME280;20500;49.856;20.290;2023-03-31T10:21:41;97786.90;;;16.46;58.00
34235;BME280;20500;49.856;20.290;2023-03-31T10:24:51;97787.31;;;16.70;57.97
34235;BME280;20500;49.856;20.290;2023-03-31T10:27:57;97786.08;;;16.86;57.56
34235;BME280;20500;49.856;20.290;2023-03-31T10:31:06;97776.95;;;17.04;57.41
34235;BME280;20500;49.856;20.290;2023-03-31T10:34:15;97780.94;;;17.27;57.29
34235;BME280;20500;49.856;20.290;2023-03-31T10:37:22;97780.55;;;17.51;56.95
34235;BME280;20500;49.856;20.290;2023-03-31T10:40:30;97770.29;;;17.77;56.77
34235;BME280;20500;49.856;20.290;2023-03-31T10:43:40;97760.35;;;17.96;56.53
34235;BME280;20500;49.856;20.290;2023-03-31T10:46:49;97756.16;;;18.10;56.06
34235;BME280;20500;49.856;20.290;2023-03-31T10:49:58;97754.68;;;18.16;55.58
34235;BME280;20500;49.856;20.290;2023-03-31T10:53:05;97753.11;;;18.22;55.35
34235;BME280;20500;49.856;20.290;2023-03-31T10:56:23;97741.58;;;18.42;55.68
34235;BME280;20500;49.856;20.290;2023-03-31T10:59:45;97741.84;;;18.56;55.26
34235;BME280;20500;49.856;20.290;2023-03-31T11:03:13;97740.14;;;18.59;54.96
34235;BME280;20500;49.856;20.290;2023-03-31T11:06:28;97740.08;;;18.66;54.63
34235;BME280;20500;49.856;20.290;2023-03-31T11:09:47;97739.70;;;18.61;54.15
34235;BME280;20500;49.856;20.290;2023-03-31T11:13:04;97733.45;;;18.45;53.79
34235;BME280;20500;49.856;20.290;2023-03-31T11:16:19;97724.09;;;18.45;53.79
34235;BME280;20500;49.856;20.290;2023-03-31T11:19:37;97715.09;;;18.53;53.72
34235;BME280;20500;49.856;20.290;2023-03-31T11:22:52;97711.02;;;18.55;53.47
34235;BME280;20500;49.856;20.290;2023-03-31T11:26:08;97708.86;;;18.55;53.04
34235;BME280;20500;49.856;20.290;2023-03-31T11:29:28;97700.71;;;18.37;52.97
34235;BME280;20500;49.856;20.290;2023-03-31T11:32:46;97688.63;;;18.18;52.60
34235;BME280;20500;49.856;20.290;2023-03-31T11:36:10;97688.39;;;17.99;52.49
34235;BME280;20500;49.856;20.290;2023-03-31T11:39:36;97689.47;;;17.90;52.28
34235;BME280;20500;49.856;20.290;2023-03-31T11:42:49;97689.02;;;17.77;52.09
34235;BME280;20500;49.856;20.290;2023-03-31T11:46:00;97692.11;;;17.49;51.80
34235;BME280;20500;49.856;20.290;2023-03-31T11:49:14;97690.66;;;17.21;51.70
34235;BME280;20500;49.856;20.290;2023-03-31T11:52:26;97691.57;;;17.03;51.67
34235;BME280;20500;49.856;20.290;2023-03-31T11:55:34;97686.08;;;16.86;51.43
34235;BME280;20500;49.856;20.290;2023-03-31T11:58:46;97683.06;;;16.77;51.45
34235;BME280;20500;49.856;20.290;2023-03-31T12:01:59;97678.77;;;16.69;51.42
34235;BME280;20500;49.856;20.290;2023-03-31T12:05:11;97678.32;;;16.66;51.41
34235;BME280;20500;49.856;20.290;2023-03-31T12:08:21;97676.59;;;16.58;51.31
34235;BME280;20500;49.856;20.290;2023-03-31T12:11:37;97673.02;;;16.51;51.17
34235;BME280;20500;49.856;20.290;2023-03-31T12:14:50;97669.67;;;16.47;51.07
34235;BME280;20500;49.856;20.290;2023-03-31T12:18:00;97664.85;;;16.47;51.05
34235;BME280;20500;49.856;20.290;2023-03-31T12:21:10;97659.95;;;16.51;51.12
34235;BME280;20500;49.856;20.290;2023-03-31T12:24:16;97654.47;;;16.52;51.12
34235;BME280;20500;49.856;20.290;2023-03-31T12:27:24;97650.36;;;16.61;51.13
34235;BME280;20500;49.856;20.290;2023-03-31T12:30:36;97644.56;;;16.67;50.99
34235;BME280;20500;49.856;20.290;2023-03-31T12:33:48;97638.95;;;16.74;51.06
34235;BME280;20500;49.856;20.290;2023-03-31T12:37:21;97630.77;;;16.75;50.76
34235;BME280;20500;49.856;20.290;2023-03-31T12:40:42;97626.74;;;16.74;50.74
34235;BME280;20500;49.856;20.290;2023-03-31T12:44:00;97612.75;;;16.76;50.85
34235;BME280;20500;49.856;20.290;2023-03-31T12:47:27;97608.83;;;16.84;50.86
34235;BME280;20500;49.856;20.290;2023-03-31T12:50:54;97608.58;;;16.86;50.68
34235;BME280;20500;49.856;20.290;2023-03-31T12:54:18;97606.63;;;16.78;50.67
34235;BME280;20500;49.856;20.290;2023-03-31T12:57:27;97606.05;;;16.64;50.41
34235;BME280;20500;49.856;20.290;2023-03-31T13:00:34;97606.09;;;16.49;50.46
34235;BME280;20500;49.856;20.290;2023-03-31T13:03:44;97604.29;;;16.41;50.45
34235;BME280;20500;49.856;20.290;2023-03-31T13:06:56;97595.60;;;16.36;50.33
34235;BME280;20500;49.856;20.290;2023-03-31T13:10:26;97594.23;;;16.28;50.42
34235;BME280;20500;49.856;20.290;2023-03-31T13:13:32;97585.20;;;16.22;50.36
34235;BME280;20500;49.856;20.290;2023-03-31T13:16:38;97580.57;;;16.25;50.51
34235;BME280;20500;49.856;20.290;2023-03-31T13:19:44;97570.55;;;16.27;50.38
34235;BME280;20500;49.856;20.290;2023-03-31T13:23:00;97564.65;;;16.25;50.33
34235;BME280;20500;49.856;20.290;2023-03-31T13:26:40;97562.71;;;16.24;50.33
34235;BME280;20500;49.856;20.290;2023-03-31T13:29:50;97557.99;;;16.25;50.28
34235;BME280;20500;49.856;20.290;2023-03-31T13:33:05;97551.52;;;16.25;50.15
34235;BME280;20500;49.856;20.290;2023-03-31T13:40:00;97539.31;;;16.38;50.35
34235;BME280;20500;49.856;20.290;2023-03-31T13:43:38;97534.11;;;16.39;50.18
34235;BME280;20500;49.856;20.290;2023-03-31T13:46:57;97529.38;;;16.42;50.19
34235;BME280;20500;49.856;20.290;2023-03-31T13:50:34;97530.09;;;16.47;50.15
34235;BME280;20500;49.856;20.290;2023-03-31T13:53:59;97520.57;;;16.50;49.91
34235;BME280;20500;49.856;20.290;2023-03-31T13:57:31;97512.55;;;16.56;49.96
34235;BME280;20500;49.856;20.290;2023-03-31T14:00:48;97507.36;;;16.53;50.02
34235;BME280;20500;49.856;20.290;2023-03-31T14:04:07;97499.89;;;16.43;49.73
34235;BME280;20500;49.856;20.290;2023-03-31T14:07:21;97500.05;;;16.33;49.76
34235;BME280;20500;49.856;20.290;2023-03-31T14:10:35;97498.09;;;16.24;49.77
34235;BME280;20500;49.856;20.290;2023-03-31T14:13:41;97500.77;;;16.14;49.66
34235;BME280;20500;49.856;20.290;2023-03-31T14:16:47;97499.45;;;15.96;49.49
34235;BME280;20500;49.856;20.290;2023-03-31T14:20:21;97490.77;;;15.82;49.52
34235;BME280;20500;49.856;20.290;2023-03-31T14:23:39;97483.73;;;15.74;49.59
34235;BME280;20500;49.856;20.290;2023-03-31T14:26:57;97482.26;;;15.67;49.65
34235;BME280;20500;49.856;20.290;2023-03-31T14:30:15;97481.50;;;15.61;49.64
34235;BME280;20500;49.856;20.290;2023-03-31T14:33:34;97474.64;;;15.60;49.78
34235;BME280;20500;49.856;20.290;2023-03-31T14:36:49;97469.92;;;15.61;49.79
34235;BME280;20500;49.856;20.290;2023-03-31T14:40:02;97471.92;;;15.64;49.65
34235;BME280;20500;49.856;20.290;2023-03-31T14:43:18;97471.45;;;15.64;49.63
34235;BME280;20500;49.856;20.290;2023-03-31T14:46:25;97469.48;;;15.60;49.45
34235;BME280;20500;49.856;20.290;2023-03-31T14:49:36;97474.10;;;15.53;49.43
34235;BME280;20500;49.856;20.290;2023-03-31T14:52:47;97473.42;;;15.48;49.49
34235;BME280;20500;49.856;20.290;2023-03-31T14:55:57;97473.11;;;15.42;49.37
34235;BME280;20500;49.856;20.290;2023-03-31T14:59:05;97472.05;;;15.36;49.37
34235;BME280;20500;49.856;20.290;2023-03-31T15:02:15;97469.13;;;15.33;49.37
34235;BME280;20500;49.856;20.290;2023-03-31T15:05:27;97468.44;;;15.26;49.18
34235;BME280;20500;49.856;20.290;2023-03-31T15:08:33;97465.95;;;15.18;49.22
34235;BME280;20500;49.856;20.290;2023-03-31T15:11:40;97458.09;;;15.12;49.26
34235;BME280;20500;49.856;20.290;2023-03-31T15:14:48;97450.96;;;15.05;49.29
34235;BME280;20500;49.856;20.290;2023-03-31T15:17:55;97444.08;;;15.00;49.26
34235;BME280;20500;49.856;20.290;2023-03-31T15:20:59;97434.55;;;14.96;49.29
34235;BME280;20500;49.856;20.290;2023-03-31T15:24:06;97423.81;;;14.89;49.27
34235;BME280;20500;49.856;20.290;2023-03-31T15:27:15;97417.37;;;14.84;49.26
34235;BME280;20500;49.856;20.290;2023-03-31T15:30:37;97409.37;;;14.80;49.28
34235;BME280;20500;49.856;20.290;2023-03-31T15:33:44;97403.21;;;14.76;49.49
34235;BME280;20500;49.856;20.290;2023-03-31T15:36:52;97395.91;;;14.71;49.55
34235;BME280;20500;49.856;20.290;2023-03-31T15:40:00;97392.65;;;14.66;49.57
34235;BME280;20500;49.856;20.290;2023-03-31T15:43:15;97390.55;;;14.61;49.63
34235;BME280;20500;49.856;20.290;2023-03-31T15:46:54;97386.90;;;14.56;49.61
34235;BME280;20500;49.856;20.290;2023-03-31T15:50:11;97385.13;;;14.49;49.76
34235;BME280;20500;49.856;20.290;2023-03-31T15:53:43;97384.92;;;14.44;49.95
34235;BME280;20500;49.856;20.290;2023-03-31T15:56:49;97381.20;;;14.40;50.02
34235;BME280;20500;49.856;20.290;2023-03-31T15:59:57;97377.62;;;14.36;50.06
34235;BME280;20500;49.856;20.290;2023-03-31T16:03:10;97368.48;;;14.33;50.21
34235;BME280;20500;49.856;20.290;2023-03-31T16:06:26;97368.05;;;14.30;50.29
34235;BME280;20500;49.856;20.290;2023-03-31T16:09:42;97366.60;;;14.25;50.36
34235;BME280;20500;49.856;20.290;2023-03-31T16:12:53;97363.11;;;14.20;50.51
34235;BME280;20500;49.856;20.290;2023-03-31T16:16:04;97358.96;;;14.15;50.79
34235;BME280;20500;49.856;20.290;2023-03-31T16:19:12;97354.92;;;14.12;50.85
34235;BME280;20500;49.856;20.290;2023-03-31T16:22:22;97351.02;;;14.08;50.80
34235;BME280;20500;49.856;20.290;2023-03-31T16:25:31;97342.89;;;14.06;51.02
34235;BME280;20500;49.856;20.290;2023-03-31T16:28:50;97336.52;;;14.08;51.12
34235;BME280;20500;49.856;20.290;2023-03-31T16:32:10;97326.92;;;14.13;51.09
34235;BME280;20500;49.856;20.290;2023-03-31T16:35:17;97321.55;;;14.17;51.18
34235;BME280;20500;49.856;20.290;2023-03-31T16:38:25;97315.94;;;14.18;51.33
34235;BME280;20500;49.856;20.290;2023-03-31T16:41:32;97313.63;;;14.17;51.42
34235;BME280;20500;49.856;20.290;2023-03-31T16:44:38;97312.25;;;14.16;51.44
34235;BME280;20500;49.856;20.290;2023-03-31T16:47:46;97304.77;;;14.15;51.59